臺北飛航情報區 - 掃描席(區管/近場)

METAR RCTP 021800Z 06005KT 9999 FEW012 13/09 Q1022 NOSIG RMK A3019(C)=

站台狀態:Online
最後更新:2021-12-03 02:00:02